Time;durP1;ratioP1;P1;durP2;ratioP2;P2;SDS_P1;SDS_P2;PMS_P1;PMS_P2;Temp;Humidity;BMP_temperature;BMP_pressure;BME280_temperature;BME280_humidity;BME280_pressure;Samples;Min_cycle;Max_cycle;Signal;HPM_P1;HPM_P2
2021/09/04 00:01:54;;;;;;;0.20;0.20;;;11.90;31.60;;;;;;4858849;28;20186;-81
2021/09/04 00:04:17;;;;;;;0.20;0.20;;;;;;;;;;4860553;28;20550;-77
2021/09/04 00:06:40;;;;;;;0.23;0.23;;;11.80;31.70;;;;;;4860571;28;20206;-84
2021/09/04 00:09:03;;;;;;;0.10;0.10;;;12.10;32.90;;;;;;4859846;28;20236;-83
2021/09/04 00:11:26;;;;;;;0.20;0.20;;;;;;;;;;4875868;28;20185;-85
2021/09/04 00:13:49;;;;;;;0.20;0.20;;;12.40;33.20;;;;;;4842980;28;20265;-83
2021/09/04 00:16:14;;;;;;;0.20;0.20;;;;;;;;;;4860573;28;20210;-85
2021/09/04 00:18:38;;;;;;;0.70;0.70;;;11.70;34.50;;;;;;4841530;28;20206;-82
2021/09/04 00:21:00;;;;;;;0.13;0.13;;;;;;;;;;4860355;28;20198;-81
2021/09/04 00:23:25;;;;;;;0.40;0.40;;;11.60;34.30;;;;;;4842360;28;20269;-84
2021/09/04 00:25:47;;;;;;;0.30;0.30;;;11.50;34.50;;;;;;4860607;28;20210;-83
2021/09/04 00:28:10;;;;;;;0.20;0.20;;;12.00;35.10;;;;;;4842403;28;20206;-85
2021/09/04 00:30:33;;;;;;;0.33;0.33;;;;;;;;;;4859273;28;20185;-84
2021/09/04 00:32:55;;;;;;;0.20;0.20;;;11.30;35.30;;;;;;4865103;28;20535;-86
2021/09/04 00:35:19;;;;;;;0.23;0.23;;;11.40;35.60;;;;;;4878936;28;20237;-83
2021/09/04 00:37:41;;;;;;;0.30;0.30;;;11.10;35.90;;;;;;4879325;28;20236;-81
2021/09/04 00:40:05;;;;;;;0.53;0.40;;;11.10;36.60;;;;;;4878156;28;20716;-81
2021/09/04 00:42:28;;;;;;;0.30;0.30;;;11.00;35.60;;;;;;4878604;28;20181;-83
2021/09/04 00:44:51;;;;;;;0.40;0.40;;;;;;;;;;4878635;28;20334;-79
2021/09/04 00:47:13;;;;;;;0.20;0.20;;;;;;;;;;4895185;28;20177;-76
2021/09/04 00:49:37;;;;;;;0.17;0.17;;;11.00;35.10;;;;;;4877161;28;20239;-75
2021/09/04 00:52:01;;;;;;;0.20;0.20;;;11.00;33.50;;;;;;4878652;28;20177;-76
2021/09/04 00:54:23;;;;;;;0.30;0.30;;;11.00;32.50;;;;;;4879352;28;20201;-76
2021/09/04 00:56:46;;;;;;;0.20;0.20;;;;;;;;;;4878502;28;20237;-75
2021/09/04 00:59:10;;;;;;;0.20;0.20;;;11.10;32.30;;;;;;4878095;28;20189;-76
2021/09/04 01:01:33;;;;;;;0.30;0.30;;;11.20;30.80;;;;;;4876051;28;20177;-76
2021/09/04 01:03:56;;;;;;;0.20;0.20;;;11.30;30.30;;;;;;4893310;28;20928;-77
2021/09/04 01:06:18;;;;;;;0.20;0.20;;;11.30;30.10;;;;;;4878069;28;20200;-75
2021/09/04 01:08:43;;;;;;;0.10;0.10;;;11.60;30.00;;;;;;4876249;28;20902;-75
2021/09/04 01:11:09;;;;;;;0.40;0.40;;;11.30;30.20;;;;;;4878182;28;20177;-77
2021/09/04 01:13:31;;;;;;;0.20;0.20;;;11.00;99.90;;;;;;4877822;28;20181;-76
2021/09/04 01:15:54;;;;;;;0.20;0.20;;;11.50;30.50;;;;;;4877970;28;20679;-75
2021/09/04 01:18:17;;;;;;;0.10;0.10;;;11.30;30.60;;;;;;4877544;28;20801;-75
2021/09/04 01:20:40;;;;;;;0.13;0.13;;;11.20;99.90;;;;;;4876966;28;20563;-76
2021/09/04 01:23:02;;;;;;;0.20;0.20;;;;;;;;;;4878014;28;20212;-78
2021/09/04 01:25:28;;;;;;;0.10;0.10;;;11.60;99.90;;;;;;4877743;28;20721;-75
2021/09/04 01:27:53;;;;;;;0.10;0.10;;;11.50;99.90;;;;;;4877796;28;20564;-76
2021/09/04 01:30:16;;;;;;;0.10;0.10;;;11.80;99.90;;;;;;4877129;28;20182;-76
2021/09/04 01:32:38;;;;;;;0.10;0.10;;;;;;;;;;4877779;28;20189;-75
2021/09/04 01:35:07;;;;;;;0.20;0.20;;;11.70;99.90;;;;;;4877917;28;20192;-75
2021/09/04 01:37:29;;;;;;;0.40;0.40;;;11.70;99.90;;;;;;4877336;28;20240;-76
2021/09/04 01:39:52;;;;;;;0.10;0.10;;;11.90;30.30;;;;;;4877038;28;20185;-75
2021/09/04 01:42:15;;;;;;;0.17;0.17;;;;;;;;;;4877578;28;20186;-76
2021/09/04 01:44:38;;;;;;;0.30;0.30;;;11.70;30.70;;;;;;4877719;28;20193;-77
2021/09/04 01:47:01;;;;;;;0.20;0.20;;;11.80;30.70;;;;;;4877633;28;20197;-76
2021/09/04 01:49:23;;;;;;;0.20;0.20;;;11.80;30.70;;;;;;4876523;28;20190;-75
2021/09/04 01:51:46;;;;;;;0.20;0.20;;;11.70;31.20;;;;;;4877442;28;20211;-76
2021/09/04 01:54:09;;;;;;;0.27;0.27;;;11.60;31.80;;;;;;4876879;28;20192;-82
2021/09/04 01:56:35;;;;;;;0.20;0.20;;;11.70;31.90;;;;;;4877045;28;20233;-77
2021/09/04 01:58:57;;;;;;;0.10;0.10;;;11.40;32.90;;;;;;4876826;28;20182;-76
2021/09/04 02:01:21;;;;;;;0.17;0.17;;;11.20;34.20;;;;;;4874630;28;20189;-76
2021/09/04 02:03:44;;;;;;;0.13;0.13;;;11.10;35.00;;;;;;4877125;28;20239;-76
2021/09/04 02:06:07;;;;;;;0.10;0.10;;;10.90;34.40;;;;;;4859528;28;20189;-77
2021/09/04 02:08:29;;;;;;;0.20;0.20;;;10.90;34.50;;;;;;4876158;28;20193;-77
2021/09/04 02:10:52;;;;;;;0.27;0.27;;;10.90;35.70;;;;;;4877177;28;20189;-75
2021/09/04 02:13:14;;;;;;;0.10;0.10;;;10.60;35.30;;;;;;4877056;28;20208;-78
2021/09/04 02:15:37;;;;;;;0.00;0.00;;;10.60;35.60;;;;;;4876919;28;20231;-75
2021/09/04 02:18:02;;;;;;;0.13;0.13;;;9.80;35.50;;;;;;4877096;28;20216;-78
2021/09/04 02:20:26;;;;;;;0.20;0.20;;;10.00;35.70;;;;;;4891286;28;20241;-76
2021/09/04 02:22:51;;;;;;;0.10;0.10;;;10.30;35.70;;;;;;4877011;28;20219;-76
2021/09/04 02:25:14;;;;;;;0.10;0.10;;;;;;;;;;4876574;28;20249;-79
2021/09/04 02:27:37;;;;;;;0.20;0.20;;;10.40;34.20;;;;;;4876062;28;20197;-77
2021/09/04 02:29:59;;;;;;;0.10;0.10;;;10.20;33.10;;;;;;4876905;28;20189;-86
2021/09/04 02:32:23;;;;;;;0.20;0.20;;;10.20;33.90;;;;;;4877260;28;20205;-84
2021/09/04 02:34:47;;;;;;;0.10;0.10;;;10.10;34.10;;;;;;4877210;28;20181;-84
2021/09/04 02:37:10;;;;;;;0.20;0.20;;;10.10;33.90;;;;;;4860052;28;20229;-86
2021/09/04 02:39:32;;;;;;;0.10;0.10;;;10.00;33.10;;;;;;4876944;28;20275;-86
2021/09/04 02:41:55;;;;;;;0.00;0.00;;;9.80;32.60;;;;;;4878057;28;20658;-87
2021/09/04 02:44:18;;;;;;;0.20;0.20;;;10.10;31.60;;;;;;4877645;28;20243;-84
2021/09/04 02:46:42;;;;;;;0.10;0.10;;;10.10;30.30;;;;;;4877244;28;20231;-86
2021/09/04 02:49:05;;;;;;;0.10;0.10;;;;;;;;;;4876763;28;20181;-87
2021/09/04 02:51:29;;;;;;;0.10;0.10;;;10.50;99.90;;;;;;4877546;28;20190;-82
2021/09/04 02:53:54;;;;;;;0.20;0.20;;;10.20;99.90;;;;;;4877787;28;20235;-77
2021/09/04 02:56:17;;;;;;;0.10;0.10;;;11.00;99.90;;;;;;4874822;28;20237;-82
2021/09/04 02:58:40;;;;;;;0.10;0.10;;;10.70;99.90;;;;;;4876694;28;20220;-87
2021/09/04 03:01:03;;;;;;;0.10;0.10;;;10.80;99.90;;;;;;4875308;28;20189;-84
2021/09/04 03:03:27;;;;;;;0.00;0.00;;;10.80;99.90;;;;;;4876374;28;20205;-84
2021/09/04 03:05:49;;;;;;;0.10;0.10;;;10.80;99.90;;;;;;4878161;28;20193;-87
2021/09/04 03:08:13;;;;;;;0.07;0.07;;;10.90;99.90;;;;;;4859791;28;20243;-85
2021/09/04 03:10:37;;;;;;;0.20;0.20;;;10.90;99.90;;;;;;4858988;28;20205;-85
2021/09/04 03:13:00;;;;;;;0.27;0.27;;;;;;;;;;4876316;28;20662;-83
2021/09/04 03:15:24;;;;;;;0.10;0.10;;;11.40;99.90;;;;;;4876695;28;20189;-86
2021/09/04 03:17:48;;;;;;;0.10;0.10;;;;;;;;;;4877630;28;20213;-86
2021/09/04 03:20:12;;;;;;;0.10;0.10;;;10.80;99.90;;;;;;4876877;28;20201;-87
2021/09/04 03:22:38;;;;;;;0.10;0.10;;;;;;;;;;4876563;28;20205;-82
2021/09/04 03:25:02;;;;;;;0.20;0.20;;;10.70;99.90;;;;;;4877302;28;20267;-78
2021/09/04 03:27:24;;;;;;;0.27;0.27;;;;;;;;;;4877123;28;20180;-89
2021/09/04 03:29:47;;;;;;;0.20;0.20;;;10.40;99.90;;;;;;4876896;28;20188;-86
2021/09/04 03:32:09;;;;;;;0.10;0.10;;;10.30;99.90;;;;;;4877824;28;20185;-87
2021/09/04 03:34:33;;;;;;;0.10;0.10;;;10.20;99.90;;;;;;4877460;28;20189;-87
2021/09/04 03:36:56;;;;;;;0.17;0.17;;;9.60;30.10;;;;;;4877002;28;20239;-82
2021/09/04 03:39:19;;;;;;;0.10;0.10;;;;;;;;;;4876737;28;20334;-87
2021/09/04 03:41:43;;;;;;;0.20;0.20;;;10.00;31.00;;;;;;4877297;28;20197;-84
2021/09/04 03:44:06;;;;;;;0.10;0.10;;;9.90;31.60;;;;;;4877636;28;20185;-89
2021/09/04 03:46:28;;;;;;;0.20;0.20;;;9.80;31.70;;;;;;4877202;28;20181;-90
2021/09/04 03:48:51;;;;;;;0.10;0.10;;;9.60;31.60;;;;;;4869869;28;20221;-84
2021/09/04 03:51:13;;;;;;;0.10;0.10;;;9.70;31.30;;;;;;4857929;28;20694;-81
2021/09/04 03:53:36;;;;;;;0.20;0.20;;;;;;;;;;4856638;28;20664;-81
2021/09/04 03:55:59;;;;;;;0.20;0.20;;;;;;;;;;4856381;28;20233;-76
2021/09/04 03:58:24;;;;;;;0.20;0.20;;;10.00;30.80;;;;;;4855550;28;20279;-78
2021/09/04 04:00:48;;;;;;;0.20;0.20;;;9.70;31.00;;;;;;4854644;28;20251;-88
2021/09/04 04:03:10;;;;;;;0.20;0.20;;;10.50;30.70;;;;;;4856670;28;20632;-78
2021/09/04 04:05:34;;;;;;;0.20;0.20;;;9.60;30.80;;;;;;4856586;28;20194;-79
2021/09/04 04:07:56;;;;;;;0.20;0.20;;;9.60;30.50;;;;;;4838837;28;20203;-76
2021/09/04 04:10:19;;;;;;;0.10;0.10;;;9.50;30.80;;;;;;4855809;28;20186;-75
2021/09/04 04:12:44;;;;;;;0.20;0.20;;;9.40;30.70;;;;;;4856543;28;20663;-75
2021/09/04 04:15:09;;;;;;;0.20;0.20;;;9.50;31.30;;;;;;4856277;28;20194;-76
2021/09/04 04:17:33;;;;;;;0.20;0.20;;;9.40;31.00;;;;;;4856397;28;20332;-86
2021/09/04 04:19:55;;;;;;;0.20;0.20;;;;;;;;;;4855877;28;20186;-76
2021/09/04 04:22:18;;;;;;;0.10;0.10;;;;;;;;;;4874902;28;20221;-79
2021/09/04 04:24:41;;;;;;;0.10;0.10;;;;;;;;;;4876973;28;20220;-75
2021/09/04 04:27:05;;;;;;;0.20;0.20;;;9.60;30.60;;;;;;4861449;28;20206;-78
2021/09/04 04:29:28;;;;;;;0.30;0.30;;;10.20;30.40;;;;;;4878103;28;20334;-77
2021/09/04 04:31:52;;;;;;;0.20;0.20;;;10.40;30.60;;;;;;4861369;28;20233;-77
2021/09/04 04:34:16;;;;;;;0.20;0.20;;;;;;;;;;4878901;28;20185;-79
2021/09/04 04:36:38;;;;;;;0.20;0.20;;;9.50;30.60;;;;;;4860857;28;20202;-77
2021/09/04 04:39:01;;;;;;;0.13;0.13;;;;;;;;;;4878533;28;20189;-75
2021/09/04 04:41:24;;;;;;;0.20;0.20;;;9.40;30.40;;;;;;4879075;28;20204;-75
2021/09/04 04:43:46;;;;;;;0.20;0.20;;;9.50;30.80;;;;;;4878984;28;20209;-78
2021/09/04 04:46:11;;;;;;;0.10;0.10;;;;;;;;;;4879057;28;20213;-75
2021/09/04 04:48:36;;;;;;;0.20;0.20;;;9.60;30.50;;;;;;4877922;28;20185;-76
2021/09/04 04:50:59;;;;;;;0.00;0.00;;;9.80;99.90;;;;;;4878901;28;20663;-78
2021/09/04 04:53:22;;;;;;;0.20;0.20;;;;;;;;;;4878546;28;20221;-76
2021/09/04 04:55:45;;;;;;;0.20;0.20;;;9.90;99.90;;;;;;4878765;28;20907;-76
2021/09/04 04:58:11;;;;;;;0.20;0.20;;;10.40;99.90;;;;;;4878725;28;20243;-76
2021/09/04 05:00:35;;;;;;;0.20;0.20;;;;;;;;;;4876059;28;20239;-77
2021/09/04 05:02:57;;;;;;;0.10;0.10;;;9.60;99.90;;;;;;4878256;28;20208;-77
2021/09/04 05:05:21;;;;;;;0.10;0.10;;;9.80;99.90;;;;;;4893948;28;20239;-77
2021/09/04 05:07:45;;;;;;;0.17;0.17;;;;;;;;;;4878668;28;20190;-77
2021/09/04 05:10:08;;;;;;;0.20;0.20;;;9.80;99.90;;;;;;4877884;28;20212;-77
2021/09/04 05:12:31;;;;;;;0.10;0.10;;;10.00;99.90;;;;;;4878552;28;20662;-77
2021/09/04 05:14:53;;;;;;;0.10;0.10;;;10.00;99.90;;;;;;4878745;28;20370;-76
2021/09/04 05:17:16;;;;;;;0.10;0.10;;;10.90;99.90;;;;;;4878486;28;20185;-79
2021/09/04 05:19:39;;;;;;;0.10;0.10;;;10.30;99.90;;;;;;4877739;28;20190;-74
2021/09/04 05:22:03;;;;;;;0.10;0.10;;;10.50;99.90;;;;;;4860229;28;20201;-77
2021/09/04 05:24:27;;;;;;;0.17;0.17;;;10.70;99.90;;;;;;4878292;28;20189;-75
2021/09/04 05:26:50;;;;;;;0.23;0.23;;;10.90;99.90;;;;;;4878347;28;20185;-75
2021/09/04 05:29:13;;;;;;;0.00;0.00;;;;;;;;;;4877468;28;20198;-81
2021/09/04 05:31:35;;;;;;;0.10;0.10;;;;;;;;;;4877964;28;20719;-75
2021/09/04 05:33:58;;;;;;;0.20;0.20;;;11.30;99.90;;;;;;4878074;28;20186;-75
2021/09/04 05:36:21;;;;;;;0.20;0.20;;;;;;;;;;4859080;28;20253;-76
2021/09/04 05:38:44;;;;;;;0.00;0.00;;;11.60;99.90;;;;;;4877322;28;20252;-75
2021/09/04 05:41:09;;;;;;;0.10;0.10;;;11.30;99.90;;;;;;4877973;28;20182;-77
2021/09/04 05:43:31;;;;;;;0.00;0.00;;;11.70;99.90;;;;;;4877987;28;20185;-86
2021/09/04 05:45:54;;;;;;;0.00;0.00;;;11.90;99.90;;;;;;4879239;28;20189;-86
2021/09/04 05:48:16;;;;;;;0.17;0.17;;;11.20;99.90;;;;;;4878519;28;20655;-87
2021/09/04 05:50:39;;;;;;;0.10;0.10;;;;;;;;;;4860567;28;20214;-86
2021/09/04 05:53:01;;;;;;;0.10;0.10;;;11.90;99.90;;;;;;4878022;28;20263;-81
2021/09/04 05:55:25;;;;;;;0.00;0.00;;;11.90;99.90;;;;;;4878439;28;20233;-84
2021/09/04 05:57:47;;;;;;;0.10;0.10;;;12.00;99.90;;;;;;4878814;28;20206;-83
2021/09/04 06:00:11;;;;;;;0.00;0.00;;;12.00;99.90;;;;;;4877810;28;20231;-81
2021/09/04 06:02:37;;;;;;;0.10;0.10;;;12.20;99.90;;;;;;4875780;28;20231;-87
2021/09/04 06:04:59;;;;;;;0.20;0.20;;;12.60;99.90;;;;;;4878041;28;20181;-84
2021/09/04 06:07:22;;;;;;;0.03;0.03;;;12.40;99.90;;;;;;4877893;28;20202;-83
2021/09/04 06:09:44;;;;;;;0.10;0.10;;;;;;;;;;4876842;28;20190;-84
2021/09/04 06:12:09;;;;;;;0.10;0.10;;;12.20;99.90;;;;;;4877736;28;20177;-84
2021/09/04 06:14:31;;;;;;;0.10;0.10;;;12.40;99.90;;;;;;4876577;28;20651;-82
2021/09/04 06:16:54;;;;;;;0.00;0.00;;;13.20;99.90;;;;;;4877661;28;20549;-84
2021/09/04 06:19:17;;;;;;;0.03;0.03;;;;;;;;;;4877219;28;20267;-84
2021/09/04 06:21:39;;;;;;;0.10;0.10;;;13.30;99.90;;;;;;4877303;28;20239;-84
2021/09/04 06:24:06;;;;;;;0.20;0.20;;;13.30;30.30;;;;;;4877052;28;20181;-78
2021/09/04 06:26:32;;;;;;;0.00;0.00;;;13.20;30.90;;;;;;4877141;28;20213;-77
2021/09/04 06:28:56;;;;;;;0.00;0.00;;;13.50;31.80;;;;;;4859305;28;20684;-82
2021/09/04 06:31:18;;;;;;;0.10;0.10;;;13.60;32.90;;;;;;4876873;28;20182;-83
2021/09/04 06:33:40;;;;;;;0.00;0.00;;;14.30;33.50;;;;;;4876958;28;20185;-84
2021/09/04 06:36:04;;;;;;;0.00;0.00;;;13.50;33.60;;;;;;4876731;28;20198;-82
2021/09/04 06:38:27;;;;;;;0.10;0.10;;;;;;;;;;4876134;28;20260;-83
2021/09/04 06:40:49;;;;;;;0.10;0.10;;;13.70;35.00;;;;;;4877590;28;20228;-80
2021/09/04 06:43:12;;;;;;;0.10;0.10;;;;;;;;;;4876773;28;20189;-81
2021/09/04 06:45:36;;;;;;;0.00;0.00;;;14.20;36.50;;;;;;4876401;28;20189;-85
2021/09/04 06:47:58;;;;;;;0.00;0.00;;;14.50;36.10;;;;;;4876956;28;20185;-83
2021/09/04 06:50:21;;;;;;;0.10;0.10;;;14.60;36.50;;;;;;4876221;28;20249;-86
2021/09/04 06:52:43;;;;;;;0.10;0.10;;;15.00;38.40;;;;;;4876861;28;20190;-84
2021/09/04 06:55:06;;;;;;;0.00;0.00;;;15.10;41.60;;;;;;4877030;28;20193;-86
2021/09/04 06:57:29;;;;;;;0.10;0.10;;;;;;;;;;4876927;28;20181;-83
2021/09/04 06:59:51;;;;;;;0.00;0.00;;;15.20;45.30;;;;;;4876093;28;20679;-83
2021/09/04 07:02:15;;;;;;;0.00;0.00;;;14.90;46.30;;;;;;4875114;28;20184;-78
2021/09/04 07:04:38;;;;;;;0.00;0.00;;;16.00;47.20;;;;;;4876461;28;20184;-81
2021/09/04 07:07:03;;;;;;;0.00;0.00;;;16.10;47.40;;;;;;4891590;28;20224;-81
2021/09/04 07:09:26;;;;;;;0.10;0.10;;;;;;;;;;4875566;28;20216;-80
2021/09/04 07:11:49;;;;;;;0.00;0.00;;;16.70;47.80;;;;;;4891688;28;20242;-80
2021/09/04 07:14:11;;;;;;;0.00;0.00;;;16.40;48.10;;;;;;4876490;28;20185;-85
2021/09/04 07:16:34;;;;;;;0.00;0.00;;;17.20;48.40;;;;;;4876169;28;20190;-82
2021/09/04 07:18:58;;;;;;;0.00;0.00;;;16.60;48.30;;;;;;4875819;28;20251;-84
2021/09/04 07:21:21;;;;;;;0.00;0.00;;;16.70;48.50;;;;;;4874739;28;20224;-81
2021/09/04 07:23:43;;;;;;;0.00;0.00;;;17.20;48.80;;;;;;4858531;28;20227;-85
2021/09/04 07:26:06;;;;;;;0.00;0.00;;;;;;;;;;4877430;28;20623;-83
2021/09/04 07:28:29;;;;;;;0.10;0.10;;;17.90;49.50;;;;;;4875742;28;20709;-85
2021/09/04 07:30:51;;;;;;;0.00;0.00;;;17.70;49.40;;;;;;4876797;28;20238;-86
2021/09/04 07:33:14;;;;;;;0.00;0.00;;;18.40;49.90;;;;;;4876797;28;20190;-79
2021/09/04 07:35:38;;;;;;;0.10;0.10;;;17.80;49.80;;;;;;4876935;28;20189;-82
2021/09/04 07:38:01;;;;;;;0.00;0.00;;;17.90;50.00;;;;;;4876021;28;20250;-78
2021/09/04 07:40:24;;;;;;;0.00;0.00;;;18.20;50.00;;;;;;4875896;28;20217;-86
2021/09/04 07:42:47;;;;;;;0.00;0.00;;;;;;;;;;4876648;28;20193;-83
2021/09/04 07:45:10;;;;;;;0.10;0.10;;;17.80;49.90;;;;;;4876262;28;20189;-84
2021/09/04 07:47:33;;;;;;;0.00;0.00;;;;;;;;;;4875745;28;20185;-82
2021/09/04 07:49:55;;;;;;;0.00;0.00;;;18.00;49.70;;;;;;4874980;28;20402;-79
2021/09/04 07:52:19;;;;;;;0.07;0.07;;;18.60;50.10;;;;;;4876279;28;20229;-75
2021/09/04 07:54:42;;;;;;;0.13;0.00;;;19.10;50.40;;;;;;4876663;28;20185;-75
2021/09/04 07:57:04;;;;;;;0.10;0.10;;;;;;;;;;4875612;28;20217;-75
2021/09/04 07:59:27;;;;;;;0.10;0.10;;;19.10;50.40;;;;;;4875536;28;20247;-75
2021/09/04 08:01:50;;;;;;;0.00;0.00;;;;;;;;;;4877767;28;20215;-76
2021/09/04 08:04:14;;;;;;;0.00;0.00;;;;;;;;;;4879697;28;20244;-77
2021/09/04 08:06:36;;;;;;;0.00;0.00;;;19.60;51.10;;;;;;4879535;28;20225;-86
2021/09/04 08:09:00;;;;;;;0.10;0.10;;;19.50;51.30;;;;;;4879872;28;20817;-85
2021/09/04 08:11:23;;;;;;;0.00;0.00;;;;;;;;;;4879539;28;20190;-84
2021/09/04 08:13:45;;;;;;;0.00;0.00;;;19.50;51.20;;;;;;4880002;28;20227;-76
2021/09/04 08:16:08;;;;;;;0.00;0.00;;;;;;;;;;4894973;28;20570;-85
2021/09/04 08:18:30;;;;;;;0.23;0.23;;;19.70;51.20;;;;;;4861152;28;20810;-86
2021/09/04 08:20:53;;;;;;;0.00;0.00;;;19.60;51.20;;;;;;4895796;28;20676;-88
2021/09/04 08:23:15;;;;;;;0.00;0.00;;;20.50;51.50;;;;;;4879555;28;20206;-84
2021/09/04 08:25:39;;;;;;;0.07;0.07;;;20.40;52.20;;;;;;4878780;28;20680;-78
2021/09/04 08:28:02;;;;;;;0.00;0.00;;;;;;;;;;4862436;28;20245;-87
2021/09/04 08:30:25;;;;;;;0.10;0.10;;;;;;;;;;4878457;28;20238;-78
2021/09/04 08:32:47;;;;;;;0.03;0.03;;;21.60;52.90;;;;;;4879509;28;20210;-83
2021/09/04 08:35:12;;;;;;;0.10;0.10;;;21.40;53.60;;;;;;4879973;28;20719;-87
2021/09/04 08:37:35;;;;;;;0.03;0.03;;;21.80;53.60;;;;;;4862173;28;20641;-86
2021/09/04 08:39:58;;;;;;;0.00;0.00;;;21.60;53.90;;;;;;4878792;28;20251;-86
2021/09/04 08:42:22;;;;;;;0.10;0.10;;;21.90;53.70;;;;;;4879343;28;20750;-84
2021/09/04 08:44:44;;;;;;;0.10;0.10;;;22.70;54.10;;;;;;4879239;28;20185;-84
2021/09/04 08:47:07;;;;;;;0.00;0.00;;;22.90;54.40;;;;;;4878721;28;20250;-86
2021/09/04 08:49:30;;;;;;;0.10;0.10;;;22.70;54.80;;;;;;4849339;28;20216;-88
2021/09/04 08:51:53;;;;;;;0.00;0.00;;;22.50;54.70;;;;;;4860712;28;20186;-86
2021/09/04 08:54:16;;;;;;;0.03;0.03;;;;;;;;;;4876466;28;20190;-91
2021/09/04 08:56:38;;;;;;;0.10;0.10;;;;;;;;;;4859743;28;20769;-89
2021/09/04 08:59:02;;;;;;;0.10;0.10;;;24.40;56.20;;;;;;4859775;28;20200;-90
2021/09/04 09:01:27;;;;;;;0.40;0.23;;;25.30;41.40;;;;;;4862630;28;20193;-87
2021/09/04 09:03:50;;;;;;;0.10;0.10;;;25.30;42.10;;;;;;4861439;28;20248;-90
2021/09/04 09:06:13;;;;;;;0.00;0.00;;;26.40;42.80;;;;;;4860788;28;20201;-85
2021/09/04 09:08:41;;;;;;;0.10;0.10;;;26.10;43.10;;;;;;4860663;28;20636;-91
2021/09/04 09:11:06;;;;;;;0.10;0.10;;;27.20;43.80;;;;;;4870096;28;20612;-88
2021/09/04 09:13:29;;;;;;;0.10;0.10;;;26.60;43.70;;;;;;4879699;28;20199;-87
2021/09/04 09:15:56;;;;;;;0.10;0.10;;;28.40;45.00;;;;;;4879401;28;20192;-88
2021/09/04 09:18:20;;;;;;;0.00;0.00;;;;;;;;;;4879976;28;20641;-80
2021/09/04 09:20:46;;;;;;;0.00;0.00;;;31.40;47.40;;;;;;4868023;28;20224;-85
2021/09/04 09:23:11;;;;;;;0.00;0.00;;;32.00;47.70;;;;;;4869898;28;20215;-92
2021/09/04 09:25:35;;;;;;;0.10;0.10;;;32.20;48.30;;;;;;4861975;28;20695;-88
2021/09/04 09:28:02;;;;;;;0.00;0.00;;;31.80;47.80;;;;;;4880450;28;20590;-94
2021/09/04 09:30:37;;;;;;;0.03;0.03;;;30.40;47.20;;;;;;4881743;28;20236;-89
2021/09/04 09:33:05;;;;;;;0.00;0.00;;;30.40;47.50;;;;;;4880954;28;20223;-81
2021/09/04 09:35:36;;;;;;;0.20;0.20;;;31.20;47.50;;;;;;4882900;28;20188;-92
2021/09/04 09:37:59;;;;;;;0.10;0.10;;;30.70;47.70;;;;;;4880657;28;20200;-87
2021/09/04 09:40:23;;;;;;;0.00;0.00;;;30.30;47.40;;;;;;4879416;28;20215;-89
2021/09/04 09:42:47;;;;;;;0.10;0.10;;;29.50;46.90;;;;;;4879240;28;20554;-92
2021/09/04 09:45:10;;;;;;;0.10;0.10;;;29.20;46.50;;;;;;4861590;28;20199;-82
2021/09/04 09:47:33;;;;;;;0.20;0.20;;;30.90;47.20;;;;;;4880248;28;20183;-80
2021/09/04 09:49:57;;;;;;;0.10;0.10;;;32.20;48.20;;;;;;4870519;28;20197;-85
2021/09/04 09:52:20;;;;;;;0.10;0.10;;;;;;;;;;4878279;28;20239;-84
2021/09/04 09:54:45;;;;;;;0.10;0.10;;;35.80;50.00;;;;;;4878658;28;20193;-83
2021/09/04 09:57:08;;;;;;;0.10;0.10;;;37.20;50.40;;;;;;4878541;28;20725;-94
2021/09/04 09:59:32;;;;;;;0.40;0.40;;;37.50;51.00;;;;;;4880271;28;20205;-88
2021/09/04 10:01:55;;;;;;;0.25;0.20;;;37.40;50.50;;;;;;4879121;28;20609;-93
2021/09/04 10:04:18;;;;;;;0.43;0.30;;;36.50;50.20;;;;;;4881560;28;20239;-77
2021/09/04 10:06:43;;;;;;;1.17;0.77;;;35.10;49.70;;;;;;4882696;28;20200;-79
2021/09/04 10:09:07;;;;;;;0.35;0.35;;;35.80;49.90;;;;;;4863599;28;20201;-90
2021/09/04 10:11:29;;;;;;;1.35;0.75;;;37.30;50.40;;;;;;4862737;28;20193;-87
2021/09/04 10:13:53;;;;;;;0.40;0.40;;;38.10;51.00;;;;;;4879208;28;20186;-79
2021/09/04 10:16:15;;;;;;;0.50;0.40;;;40.10;51.70;;;;;;4880238;28;20200;-87
2021/09/04 10:18:40;;;;;;;1.55;0.88;;;40.20;51.80;;;;;;4879098;28;20554;-87
2021/09/04 10:21:13;;;;;;;0.35;0.20;;;40.80;52.30;;;;;;4879995;28;20221;-81
2021/09/04 10:23:41;;;;;;;1.95;1.05;;;39.40;51.80;;;;;;4878036;28;20209;-82
2021/09/04 10:26:29;;;;;;;0.22;0.20;;;38.30;51.10;;;;;;4880836;28;20213;-84
2021/09/04 10:29:02;;;;;;;0.77;0.43;;;36.00;50.30;;;;;;4879646;28;20196;-82
2021/09/04 10:32:03;;;;;;;0.38;0.30;;;33.80;49.50;;;;;;4881005;28;20797;-86
2021/09/04 10:34:28;;;;;;;0.70;0.50;;;32.20;48.80;;;;;;4868514;28;20196;-85
2021/09/04 10:37:00;;;;;;;0.65;0.40;;;31.40;48.80;;;;;;4860231;28;20217;-80
2021/09/04 10:39:25;;;;;;;0.60;0.30;;;29.60;48.20;;;;;;4878170;28;20573;-77
2021/09/04 10:41:49;;;;;;;0.67;0.50;;;29.30;47.50;;;;;;4880476;28;20221;-77
2021/09/04 10:44:11;;;;;;;0.20;0.20;;;;;;;;;;4877270;28;20185;-78
2021/09/04 10:46:35;;;;;;;1.20;0.67;;;29.20;47.20;;;;;;4876779;28;20288;-79
2021/09/04 10:49:00;;;;;;;0.87;0.43;;;31.10;48.20;;;;;;4877854;28;20575;-79
2021/09/04 10:51:44;;;;;;;0.45;0.32;;;32.70;49.30;;;;;;4859072;28;20206;-84
2021/09/04 10:54:07;;;;;;;1.50;0.55;;;34.30;49.50;;;;;;4877353;28;20169;-90
2021/09/04 10:56:32;;;;;;;1.05;0.80;;;36.20;50.50;;;;;;4876545;28;20253;-83
2021/09/04 10:58:55;;;;;;;0.47;0.30;;;;;;;;;;4882358;28;20204;-78
2021/09/04 11:01:20;;;;;;;0.70;0.40;;;39.20;51.50;;;;;;4876845;28;20250;-85
2021/09/04 11:03:43;;;;;;;0.57;0.35;;;40.70;52.50;;;;;;4879167;28;20225;-82
2021/09/04 11:06:08;;;;;;;0.17;0.15;;;41.50;52.40;;;;;;4883245;28;20185;-83
2021/09/04 11:08:36;;;;;;;2.08;1.05;;;42.30;52.80;;;;;;4878960;28;20708;-92
2021/09/04 11:11:16;;;;;;;0.55;0.20;;;43.40;53.20;;;;;;4880810;28;20181;-93
2021/09/04 11:13:41;;;;;;;1.33;0.82;;;43.50;53.30;;;;;;4855381;28;20223;-89
2021/09/04 11:16:35;;;;;;;0.13;0.13;;;44.90;53.80;;;;;;4874492;28;20209;-92
2021/09/04 11:19:03;;;;;;;0.47;0.40;;;45.90;54.10;;;;;;4853099;28;20197;-81
2021/09/04 11:21:26;;;;;;;0.70;0.38;;;46.30;54.40;;;;;;4865869;28;20664;-94
2021/09/04 11:23:50;;;;;;;1.90;0.55;;;46.70;54.50;;;;;;4877568;28;20694;-86
2021/09/04 11:26:13;;;;;;;3.35;1.00;;;;;;;;;;4864236;28;20752;-86
2021/09/04 11:28:37;;;;;;;4.55;1.38;;;47.70;55.00;;;;;;4870622;28;20193;-84
2021/09/04 11:31:02;;;;;;;2.97;0.88;;;47.90;54.90;;;;;;4867960;28;20232;-88
2021/09/04 11:33:24;;;;;;;2.05;0.60;;;;;;;;;;4868953;28;20541;-79
2021/09/04 11:35:48;;;;;;;1.63;0.50;;;47.50;55.10;;;;;;4871107;28;20185;-80
2021/09/04 11:38:10;;;;;;;2.03;0.70;;;48.10;55.00;;;;;;4874480;28;21804;-84
2021/09/04 11:40:35;;;;;;;4.68;1.35;;;48.20;55.10;;;;;;4880321;28;20236;-83
2021/09/04 11:42:57;;;;;;;2.63;0.82;;;47.80;55.00;;;;;;4889554;28;20650;-90
2021/09/04 11:45:22;;;;;;;2.30;0.80;;;45.90;54.60;;;;;;4881942;28;20706;-86
2021/09/04 11:47:48;;;;;;;1.40;0.50;;;44.00;53.90;;;;;;4869104;28;20189;-79
2021/09/04 11:50:19;;;;;;;2.13;0.65;;;41.50;53.00;;;;;;4860528;28;20202;-86
2021/09/04 11:52:41;;;;;;;8.13;2.03;;;41.50;53.00;;;;;;4867580;28;20186;-82
2021/09/04 11:55:08;;;;;;;3.97;0.73;;;42.80;53.50;;;;;;4874921;28;20193;-84
2021/09/04 11:57:33;;;;;;;8.18;1.25;;;44.60;53.20;;;;;;4876275;28;20255;-92
2021/09/04 12:00:00;;;;;;;7.32;1.17;;;45.50;54.30;;;;;;4868743;28;20189;-83
2021/09/04 12:02:22;;;;;;;4.32;0.73;;;46.70;54.50;;;;;;4882464;28;20242;-84
2021/09/04 12:04:46;;;;;;;3.40;0.60;;;48.10;55.20;;;;;;4865578;28;20201;-83
2021/09/04 12:07:09;;;;;;;6.65;1.05;;;;;;;;;;4872561;28;20185;-87
2021/09/04 12:09:32;;;;;;;13.45;1.90;;;48.50;55.20;;;;;;4860209;28;20720;-88
2021/09/04 12:11:54;;;;;;;72.50;63.55;;;;;;;;;;4868631;28;20235;-85
2021/09/04 12:14:17;;;;;;;452.88;404.48;;;;;;;;;;4868562;28;20256;-89
2021/09/04 12:16:40;;;;;;;454.75;404.75;;;;;;;;;;4865222;28;20186;-88
2021/09/04 12:19:16;;;;;;;442.85;397.60;;;49.90;56.00;;;;;;4869723;28;20258;-88
2021/09/04 12:21:50;;;;;;;208.00;190.50;;;50.90;56.20;;;;;;4871012;28;20170;-86
2021/09/04 12:24:13;;;;;;;118.15;111.00;;;;;;;;;;4865538;28;20687;-87
2021/09/04 12:26:36;;;;;;;330.25;310.23;;;;;;;;;;4865023;28;20186;-87
2021/09/04 12:29:06;;;;;;;386.40;361.15;;;52.40;56.70;;;;;;4862902;28;20178;-88
2021/09/04 12:31:29;;;;;;;390.75;366.13;;;;;;;;;;4868063;28;20205;-87
2021/09/04 12:34:01;;;;;;;400.38;372.90;;;53.60;57.20;;;;;;4867112;28;20189;-85
2021/09/04 12:36:36;;;;;;;398.30;368.98;;;53.40;57.10;;;;;;4871668;28;20232;-87
2021/09/04 12:39:10;;;;;;;257.48;241.90;;;53.00;57.10;;;;;;4865902;28;20178;-88
2021/09/04 12:41:34;;;;;;;155.43;145.00;;;51.70;56.60;;;;;;4866329;28;20178;-83
2021/09/04 12:43:59;;;;;;;33.75;30.83;;;49.60;56.00;;;;;;4874822;28;20207;-88
2021/09/04 12:46:28;;;;;;;47.05;43.60;;;48.70;53.90;;;;;;4874977;28;20220;-86
2021/09/04 12:48:54;;;;;;;39.97;36.97;;;49.60;56.00;;;;;;4850958;28;20190;-89